Jack Robertson — WDE5993 — position and weather

sailwx.info

Track history (hours):
 
Tides and Currents Weather Stations Pressure Air Temp Water Temp Dewpoint Dewpoint Depression Visibility Wind Speed Wind Dir Waves Ship Positions

Oceanographic research ship Jack Robertson (United States)

Owner: University of Washington Applied Physics Laboratory, Seattle, WA. More information available from US FCC via Universal Licensing System and Coast Guard Vessel Documentation Center.

Last reported at 2017-Mar-24 22:33 UTC. Time now 2017-Mar-26 13:05 UTC.
Position N 47°39' W 122°19'.

; draft 1.7 m.

Type: Other ship. MMSI: 367374350.

Date/timePositionNaut miles runAvg speedWind from/ knotsBaromVisibWave heightAir tempDewpointWater temp
2017-Mar-24 22:33N 47°39' W 122°19'4 3.6
2017-Mar-24 21:33N 47°40' W 122°24'2 2.2
2017-Mar-24 20:33N 47°42' W 122°24'0 0.0
2017-Mar-24 19:33N 47°42' W 122°24'0 0.0
2017-Mar-24 18:34N 47°42' W 122°24'1 0.7
2017-Mar-24 17:33N 47°43' W 122°24'1 0.6
2017-Mar-24 16:33N 47°42' W 122°24'1 0.9
2017-Mar-24 15:34N 47°42' W 122°25'1 1.3
2017-Mar-24 14:34N 47°41' W 122°24'0 0.0
2017-Mar-24 00:05N 47°41' W 122°24'0 0.0
2017-Mar-23 23:33N 47°41' W 122°24'0 0.1
2017-Mar-23 22:33N 47°41' W 122°25'0 0.0
2017-Mar-23 21:33N 47°41' W 122°24'3 2.7
2017-Mar-23 20:33N 47°44' W 122°24'1 1.5
2017-Mar-23 19:33N 47°45' W 122°24'1 0.6
2017-Mar-23 18:33N 47°44' W 122°24'1 0.6
2017-Mar-23 17:33N 47°44' W 122°24'0 0.4
2017-Mar-23 16:33N 47°43' W 122°24'0 0.4
2017-Mar-23 15:33N 47°43' W 122°25'2 2.3
2017-Mar-23 14:33N 47°41' W 122°24'0 0.0
2017-Mar-23 00:34N 47°41' W 122°24'2 1.5
2017-Mar-22 23:33N 47°42' W 122°24'0 0.0
2017-Mar-22 22:34N 47°42' W 122°24'2 1.7
2017-Mar-22 21:33N 47°44' W 122°23'1 1.0
2017-Mar-22 20:20N 47°45' W 122°24'1 1.4
2017-Mar-22 19:33N 47°44' W 122°24'1 0.8
2017-Mar-22 18:33N 47°43' W 122°24'1 0.9
2017-Mar-22 17:33N 47°43' W 122°23'0 0.0
2017-Mar-22 16:34N 47°43' W 122°23'2 1.7
2017-Mar-22 15:33N 47°41' W 122°24'1 0.0
2017-Mar-22 01:14N 47°41' W 122°24'3 4.7
2017-Mar-22 00:34N 47°44' W 122°24'0 0.4
2017-Mar-21 23:33N 47°44' W 122°24'2 2.2
2017-Mar-21 22:34N 47°46' W 122°23'1 1.4
2017-Mar-21 21:34N 47°44' W 122°23'1 1.0
2017-Mar-21 20:33N 47°43' W 122°24'1 0.6
2017-Mar-21 19:34N 47°43' W 122°24'0 0.2
2017-Mar-21 18:34N 47°43' W 122°24'0 0.2
2017-Mar-21 17:33N 47°43' W 122°24'2 2.2
2017-Mar-21 16:34N 47°41' W 122°24'0 0.0
2017-Mar-21 15:33N 47°41' W 122°24'0 0.0
2017-Mar-21 14:33N 47°41' W 122°24'0 0.0
2017-Mar-20 23:33N 47°41' W 122°24'3 3.2
2017-Mar-20 22:33N 47°44' W 122°24'1 1.0
2017-Mar-20 21:33N 47°43' W 122°23'0 0.0
2017-Mar-20 20:33N 47°43' W 122°23'2 1.8
2017-Mar-20 19:33N 47°42' W 122°25'2 2.3
2017-Mar-20 18:34N 47°44' W 122°23'0 0.3
2017-Mar-20 17:34N 47°44' W 122°23'1 1.1
2017-Mar-20 16:33N 47°43' W 122°24'2 2.4
2017-Mar-20 15:33N 47°41' W 122°24'0 0.0
2017-Mar-20 14:33N 47°41' W 122°24'  
2017-Mar-17 23:33N 47°41' W 122°24'3 2.6
2017-Mar-17 22:33N 47°44' W 122°24'1 1.1
2017-Mar-17 21:34N 47°45' W 122°24'1 0.7
2017-Mar-17 20:33N 47°44' W 122°24'1 1.0
2017-Mar-17 19:34N 47°44' W 122°25'1 0.7
2017-Mar-17 18:34N 47°44' W 122°25'0 0.3
2017-Mar-17 17:33N 47°43' W 122°25'0 0.1
2017-Mar-17 16:33N 47°43' W 122°24'3 2.7
2017-Mar-17 15:34N 47°41' W 122°24'0 0.0
2017-Mar-16 23:33N 47°41' W 122°24'0 0.0
2017-Mar-16 22:33N 47°41' W 122°24'0 0.4
2017-Mar-16 21:33N 47°41' W 122°24'2 2.2
2017-Mar-16 20:33N 47°43' W 122°24'1 1.2
2017-Mar-16 19:34N 47°42' W 122°24'0 0.0
2017-Mar-16 18:33N 47°42' W 122°24'0 0.0
2017-Mar-16 17:33N 47°42' W 122°24'1 0.9
2017-Mar-16 16:33N 47°43' W 122°24'0 0.5
2017-Mar-16 15:33N 47°43' W 122°24'2 0.1
2017-Mar-15 23:14N 47°41' W 122°24'4 5.7
2017-Mar-15 22:34N 47°45' W 122°24'1 0.9
2017-Mar-15 21:33N 47°45' W 122°23'1 0.8
2017-Mar-15 20:33N 47°46' W 122°24'1 0.7
2017-Mar-15 19:33N 47°45' W 122°24'1 0.6
2017-Mar-15 18:34N 47°45' W 122°24'0 0.4
2017-Mar-15 17:34N 47°44' W 122°24'1 0.6
2017-Mar-15 16:34N 47°44' W 122°24'0 0.3
2017-Mar-15 15:33N 47°43' W 122°24'3 2.6
2017-Mar-15 14:34N 47°41' W 122°24'0 0.0
2017-Mar-15 00:33N 47°41' W 122°24'5 4.9
2017-Mar-14 23:33N 47°46' W 122°24'1 0.9
2017-Mar-14 22:33N 47°45' W 122°24'  
Track history (hours):
 
Tides and Currents Weather Stations Pressure Air Temp Water Temp Dewpoint Dewpoint Depression Visibility Wind Speed Wind Dir Waves Ship Positions

Oceanographic research ship Jack Robertson (United States)

Owner: University of Washington Applied Physics Laboratory, Seattle, WA. More information available from US FCC via Universal Licensing System and Coast Guard Vessel Documentation Center.

Last reported at 2017-Mar-24 22:33 UTC. Time now 2017-Mar-26 13:05 UTC.
Position N 47°39' W 122°19'.

; draft 1.7 m.

Type: Other ship. MMSI: 367374350.

Date/timePositionNaut miles runAvg speedWind from/ knotsBaromVisibWave heightAir tempDewpointWater temp
2017-Mar-24 22:33N 47°39' W 122°19'4 3.6
2017-Mar-24 21:33N 47°40' W 122°24'2 2.2
2017-Mar-24 20:33N 47°42' W 122°24'0 0.0
2017-Mar-24 19:33N 47°42' W 122°24'0 0.0
2017-Mar-24 18:34N 47°42' W 122°24'1 0.7
2017-Mar-24 17:33N 47°43' W 122°24'1 0.6
2017-Mar-24 16:33N 47°42' W 122°24'1 0.9
2017-Mar-24 15:34N 47°42' W 122°25'1 1.3
2017-Mar-24 14:34N 47°41' W 122°24'0 0.0
2017-Mar-24 00:05N 47°41' W 122°24'0 0.0
2017-Mar-23 23:33N 47°41' W 122°24'0 0.1
2017-Mar-23 22:33N 47°41' W 122°25'0 0.0
2017-Mar-23 21:33N 47°41' W 122°24'3 2.7
2017-Mar-23 20:33N 47°44' W 122°24'1 1.5
2017-Mar-23 19:33N 47°45' W 122°24'1 0.6
2017-Mar-23 18:33N 47°44' W 122°24'1 0.6
2017-Mar-23 17:33N 47°44' W 122°24'0 0.4
2017-Mar-23 16:33N 47°43' W 122°24'0 0.4
2017-Mar-23 15:33N 47°43' W 122°25'2 2.3
2017-Mar-23 14:33N 47°41' W 122°24'0 0.0
2017-Mar-23 00:34N 47°41' W 122°24'2 1.5
2017-Mar-22 23:33N 47°42' W 122°24'0 0.0
2017-Mar-22 22:34N 47°42' W 122°24'2 1.7
2017-Mar-22 21:33N 47°44' W 122°23'1 1.0
2017-Mar-22 20:20N 47°45' W 122°24'1 1.4
2017-Mar-22 19:33N 47°44' W 122°24'1 0.8
2017-Mar-22 18:33N 47°43' W 122°24'1 0.9
2017-Mar-22 17:33N 47°43' W 122°23'0 0.0
2017-Mar-22 16:34N 47°43' W 122°23'2 1.7
2017-Mar-22 15:33N 47°41' W 122°24'1 0.0
2017-Mar-22 01:14N 47°41' W 122°24'3 4.7
2017-Mar-22 00:34N 47°44' W 122°24'0 0.4
2017-Mar-21 23:33N 47°44' W 122°24'2 2.2
2017-Mar-21 22:34N 47°46' W 122°23'1 1.4
2017-Mar-21 21:34N 47°44' W 122°23'1 1.0
2017-Mar-21 20:33N 47°43' W 122°24'1 0.6
2017-Mar-21 19:34N 47°43' W 122°24'0 0.2
2017-Mar-21 18:34N 47°43' W 122°24'0 0.2
2017-Mar-21 17:33N 47°43' W 122°24'2 2.2
2017-Mar-21 16:34N 47°41' W 122°24'0 0.0
2017-Mar-21 15:33N 47°41' W 122°24'0 0.0
2017-Mar-21 14:33N 47°41' W 122°24'0 0.0
2017-Mar-20 23:33N 47°41' W 122°24'3 3.2
2017-Mar-20 22:33N 47°44' W 122°24'1 1.0
2017-Mar-20 21:33N 47°43' W 122°23'0 0.0
2017-Mar-20 20:33N 47°43' W 122°23'2 1.8
2017-Mar-20 19:33N 47°42' W 122°25'2 2.3
2017-Mar-20 18:34N 47°44' W 122°23'0 0.3
2017-Mar-20 17:34N 47°44' W 122°23'1 1.1
2017-Mar-20 16:33N 47°43' W 122°24'2 2.4
2017-Mar-20 15:33N 47°41' W 122°24'0 0.0
2017-Mar-20 14:33N 47°41' W 122°24'  
2017-Mar-17 23:33N 47°41' W 122°24'3 2.6
2017-Mar-17 22:33N 47°44' W 122°24'1 1.1
2017-Mar-17 21:34N 47°45' W 122°24'1 0.7
2017-Mar-17 20:33N 47°44' W 122°24'1 1.0
2017-Mar-17 19:34N 47°44' W 122°25'1 0.7
2017-Mar-17 18:34N 47°44' W 122°25'0 0.3
2017-Mar-17 17:33N 47°43' W 122°25'0 0.1
2017-Mar-17 16:33N 47°43' W 122°24'3 2.7
2017-Mar-17 15:34N 47°41' W 122°24'0 0.0
2017-Mar-16 23:33N 47°41' W 122°24'0 0.0
2017-Mar-16 22:33N 47°41' W 122°24'0 0.4
2017-Mar-16 21:33N 47°41' W 122°24'2 2.2
2017-Mar-16 20:33N 47°43' W 122°24'1 1.2
2017-Mar-16 19:34N 47°42' W 122°24'0 0.0
2017-Mar-16 18:33N 47°42' W 122°24'0 0.0
2017-Mar-16 17:33N 47°42' W 122°24'1 0.9
2017-Mar-16 16:33N 47°43' W 122°24'0 0.5
2017-Mar-16 15:33N 47°43' W 122°24'2 0.1
2017-Mar-15 23:14N 47°41' W 122°24'4 5.7
2017-Mar-15 22:34N 47°45' W 122°24'1 0.9
2017-Mar-15 21:33N 47°45' W 122°23'1 0.8
2017-Mar-15 20:33N 47°46' W 122°24'1 0.7
2017-Mar-15 19:33N 47°45' W 122°24'1 0.6
2017-Mar-15 18:34N 47°45' W 122°24'0 0.4
2017-Mar-15 17:34N 47°44' W 122°24'1 0.6
2017-Mar-15 16:34N 47°44' W 122°24'0 0.3
2017-Mar-15 15:33N 47°43' W 122°24'3 2.6
2017-Mar-15 14:34N 47°41' W 122°24'0 0.0
2017-Mar-15 00:33N 47°41' W 122°24'5 4.9
2017-Mar-14 23:33N 47°46' W 122°24'1 0.9
2017-Mar-14 22:33N 47°45' W 122°24'  

Dump ship's entire track history